Time;durP1;ratioP1;P1;durP2;ratioP2;P2;SDS_P1;SDS_P2;PMS_P1;PMS_P2;Temp;Humidity;BMP_temperature;BMP_pressure;BME280_temperature;BME280_humidity;BME280_pressure;Samples;Min_cycle;Max_cycle;Signal;HPM_P1;HPM_P2
2023/07/24 00:01:22;;;;;;;3.72;2.30;;;20.00;78.00;;;;;;5061537;28;20405;-74
2023/07/24 00:03:49;;;;;;;4.25;2.63;;;20.00;77.80;;;;;;5065616;28;20049;-73
2023/07/24 00:06:16;;;;;;;4.68;2.67;;;20.10;77.40;;;;;;5066905;28;20049;-75
2023/07/24 00:08:43;;;;;;;3.83;2.20;;;20.10;77.50;;;;;;5057762;28;20535;-74
2023/07/24 00:11:12;;;;;;;5.10;2.95;;;20.10;77.40;;;;;;5064383;28;20049;-74
2023/07/24 00:13:39;;;;;;;5.30;2.72;;;20.10;77.30;;;;;;5064708;28;20127;-73
2023/07/24 00:16:10;;;;;;;5.97;3.13;;;20.00;77.60;;;;;;5062921;28;20132;-72
2023/07/24 00:18:38;;;;;;;7.25;3.40;;;20.00;77.50;;;;;;5061523;28;20504;-73
2023/07/24 00:21:05;;;;;;;6.15;3.65;;;19.90;77.70;;;;;;5061042;28;20063;-73
2023/07/24 00:23:32;;;;;;;5.85;3.83;;;19.90;77.70;;;;;;5057005;28;20055;-74
2023/07/24 00:25:59;;;;;;;5.88;4.00;;;20.00;77.50;;;;;;5063891;28;20055;-75
2023/07/24 00:28:26;;;;;;;7.47;4.20;;;19.90;77.60;;;;;;5064009;28;21328;-73
2023/07/24 00:30:53;;;;;;;5.50;3.58;;;19.90;77.70;;;;;;5060896;28;20104;-74
2023/07/24 00:33:21;;;;;;;10.35;4.15;;;19.90;77.80;;;;;;5056240;28;20089;-77
2023/07/24 00:35:49;;;;;;;5.97;3.78;;;19.90;77.60;;;;;;5059327;28;20064;-73
2023/07/24 00:38:16;;;;;;;6.35;3.78;;;19.80;77.70;;;;;;5058390;28;20123;-72
2023/07/24 00:40:43;;;;;;;5.43;3.10;;;19.70;77.80;;;;;;5078394;28;20173;-73
2023/07/24 00:43:12;;;;;;;5.78;3.42;;;19.70;77.90;;;;;;5058849;28;20100;-73
2023/07/24 00:45:39;;;;;;;5.05;3.10;;;19.60;78.10;;;;;;5062592;28;20040;-72
2023/07/24 00:48:06;;;;;;;5.65;3.17;;;19.60;78.20;;;;;;5063471;28;20128;-72
2023/07/24 00:50:34;;;;;;;5.25;2.83;;;19.50;78.50;;;;;;5060646;28;20535;-72
2023/07/24 00:53:02;;;;;;;5.93;2.92;;;19.40;78.80;;;;;;5060688;28;20041;-72
2023/07/24 00:55:30;;;;;;;5.82;3.15;;;19.40;79.00;;;;;;5065381;28;20426;-72
2023/07/24 00:58:00;;;;;;;4.97;2.95;;;19.40;79.00;;;;;;5062853;28;20044;-72
2023/07/24 01:00:28;;;;;;;5.10;3.00;;;19.40;79.00;;;;;;5060825;28;20037;-72
2023/07/24 01:02:57;;;;;;;6.30;3.55;;;19.30;79.30;;;;;;5063086;28;20428;-73
2023/07/24 01:05:26;;;;;;;6.50;3.67;;;19.20;79.50;;;;;;5064183;28;20040;-73
2023/07/24 01:07:53;;;;;;;5.38;3.20;;;19.20;79.60;;;;;;5062370;28;20050;-74
2023/07/24 01:10:22;;;;;;;6.30;3.13;;;19.10;80.00;;;;;;5061607;28;20049;-72
2023/07/24 01:12:58;;;;;;;6.72;3.28;;;19.10;80.10;;;;;;5061181;28;20045;-71
2023/07/24 01:15:31;;;;;;;5.85;3.08;;;19.10;80.20;;;;;;5061121;28;20127;-71
2023/07/24 01:18:01;;;;;;;5.78;2.67;;;19.10;80.10;;;;;;5061653;28;20049;-73
2023/07/24 01:20:30;;;;;;;6.28;3.25;;;19.10;80.10;;;;;;5057597;28;20135;-74
2023/07/24 01:23:23;;;;;;;6.03;3.25;;;19.10;80.30;;;;;;5056622;28;20489;-72
2023/07/24 01:25:59;;;;;;;5.30;3.33;;;19.10;80.20;;;;;;5061066;28;20052;-73
2023/07/24 01:28:26;;;;;;;4.80;3.10;;;19.10;80.20;;;;;;5063872;28;20048;-72
2023/07/24 01:30:54;;;;;;;4.35;2.55;;;19.10;80.20;;;;;;5065056;28;20040;-72
2023/07/24 01:33:22;;;;;;;7.05;3.30;;;19.10;80.40;;;;;;5062644;28;20054;-71
2023/07/24 01:35:52;;;;;;;4.30;2.70;;;19.00;80.50;;;;;;5062109;28;20060;-72
2023/07/24 01:38:19;;;;;;;5.18;3.10;;;19.00;80.70;;;;;;5058796;28;20417;-72
2023/07/24 01:40:46;;;;;;;4.90;2.45;;;19.00;80.60;;;;;;5082555;28;20040;-72
2023/07/24 01:43:15;;;;;;;5.10;3.30;;;19.00;80.60;;;;;;5058366;28;20052;-72
2023/07/24 01:45:42;;;;;;;4.10;2.55;;;18.90;80.70;;;;;;5059843;28;20063;-72
2023/07/24 01:48:09;;;;;;;4.57;2.20;;;18.90;80.70;;;;;;5059500;28;20076;-72
2023/07/24 01:50:36;;;;;;;4.25;2.60;;;18.90;80.80;;;;;;5065546;28;20055;-72
2023/07/24 01:53:03;;;;;;;5.30;2.88;;;18.90;80.60;;;;;;5064948;28;20074;-70
2023/07/24 01:55:31;;;;;;;3.50;2.05;;;18.90;80.70;;;;;;5064541;28;20052;-71
2023/07/24 01:57:58;;;;;;;5.22;2.70;;;18.90;80.70;;;;;;5059392;28;20060;-73
2023/07/24 02:00:26;;;;;;;5.20;2.47;;;18.90;80.60;;;;;;5064489;28;20148;-72
2023/07/24 02:02:59;;;;;;;4.32;2.60;;;18.90;80.70;;;;;;5057628;28;20126;-73
2023/07/24 02:05:30;;;;;;;3.53;2.03;;;18.90;80.80;;;;;;5059306;28;20041;-71
2023/07/24 02:07:58;;;;;;;6.13;2.47;;;18.80;80.90;;;;;;5061465;28;20137;-72
2023/07/24 02:10:25;;;;;;;4.03;2.00;;;18.80;80.80;;;;;;5059883;28;20062;-71
2023/07/24 02:12:52;;;;;;;3.85;2.40;;;18.80;80.80;;;;;;5060033;28;20393;-72
2023/07/24 02:15:19;;;;;;;4.47;2.25;;;18.80;80.80;;;;;;5062531;28;20055;-72
2023/07/24 02:17:47;;;;;;;3.67;2.05;;;18.70;80.80;;;;;;5059815;28;20158;-72
2023/07/24 02:20:14;;;;;;;4.97;2.30;;;18.70;80.70;;;;;;5076061;28;20127;-72
2023/07/24 02:22:41;;;;;;;4.35;2.15;;;18.70;80.70;;;;;;5056459;28;20484;-73
2023/07/24 02:25:09;;;;;;;5.20;2.17;;;18.70;80.80;;;;;;5059884;28;20044;-72
2023/07/24 02:27:36;;;;;;;5.80;2.67;;;18.70;80.90;;;;;;5062335;28;20056;-73
2023/07/24 02:30:04;;;;;;;4.55;2.63;;;18.60;81.00;;;;;;5059822;28;20131;-71
2023/07/24 02:32:32;;;;;;;5.88;2.63;;;18.60;81.10;;;;;;5059547;28;20068;-73
2023/07/24 02:35:00;;;;;;;4.65;2.58;;;18.60;81.10;;;;;;5061525;28;20049;-69
2023/07/24 02:37:27;;;;;;;4.60;2.50;;;18.60;80.90;;;;;;5055901;28;20097;-72
2023/07/24 02:39:54;;;;;;;4.68;2.70;;;18.60;81.10;;;;;;5063362;28;20059;-71
2023/07/24 02:42:20;;;;;;;6.03;2.65;;;18.50;81.00;;;;;;5063648;28;20127;-71
2023/07/24 02:44:52;;;;;;;4.47;2.55;;;18.50;81.10;;;;;;5056934;28;20051;-70
2023/07/24 02:47:21;;;;;;;4.78;2.25;;;18.40;81.30;;;;;;5060679;28;20060;-70
2023/07/24 02:49:48;;;;;;;4.18;2.40;;;18.40;81.20;;;;;;5063108;28;20071;-70
2023/07/24 02:52:16;;;;;;;4.85;2.50;;;18.40;81.30;;;;;;5062952;28;20052;-71
2023/07/24 02:54:43;;;;;;;4.90;2.60;;;18.40;81.20;;;;;;5062865;28;20048;-72
2023/07/24 02:57:11;;;;;;;4.88;2.78;;;18.40;81.00;;;;;;5061398;28;20428;-71
2023/07/24 02:59:38;;;;;;;4.28;2.60;;;18.50;80.60;;;;;;5065238;28;20052;-70
2023/07/24 03:02:06;;;;;;;4.45;2.33;;;18.60;80.20;;;;;;5061750;28;20072;-72
2023/07/24 03:04:33;;;;;;;4.30;2.67;;;18.50;80.10;;;;;;5060473;28;20052;-72
2023/07/24 03:07:00;;;;;;;5.68;3.05;;;18.60;80.10;;;;;;5063802;28;20100;-70
2023/07/24 03:09:28;;;;;;;5.25;2.95;;;18.60;80.10;;;;;;5062584;28;20060;-71
2023/07/24 03:11:55;;;;;;;5.05;2.95;;;18.50;80.20;;;;;;5064032;28;20587;-72
2023/07/24 03:14:22;;;;;;;6.53;2.90;;;18.50;80.60;;;;;;5057805;28;20044;-71
2023/07/24 03:16:49;;;;;;;3.92;2.50;;;18.30;81.00;;;;;;5056358;28;20538;-71
2023/07/24 03:19:17;;;;;;;4.97;2.65;;;18.30;81.20;;;;;;5058900;28;20139;-71
2023/07/24 03:21:44;;;;;;;4.10;2.63;;;18.30;81.30;;;;;;5063562;28;20496;-70
2023/07/24 03:24:11;;;;;;;6.03;2.40;;;18.30;81.50;;;;;;5060455;28;20045;-71
2023/07/24 03:26:39;;;;;;;4.07;2.42;;;18.30;81.50;;;;;;5064167;28;20127;-70
2023/07/24 03:29:07;;;;;;;5.40;2.42;;;18.20;81.60;;;;;;5056648;28;20045;-70
2023/07/24 03:31:34;;;;;;;5.93;2.20;;;18.30;81.60;;;;;;5066881;28;20135;-70
2023/07/24 03:34:01;;;;;;;4.90;2.83;;;18.20;81.70;;;;;;5066028;28;20049;-71
2023/07/24 03:36:28;;;;;;;3.78;2.00;;;18.20;81.60;;;;;;5061324;28;20044;-71
2023/07/24 03:38:55;;;;;;;6.30;2.70;;;18.20;81.60;;;;;;5063582;28;20055;-71
2023/07/24 03:41:22;;;;;;;3.67;2.08;;;18.20;81.70;;;;;;5064380;28;20073;-71
2023/07/24 03:43:50;;;;;;;4.07;2.40;;;18.20;81.70;;;;;;5060156;28;20416;-71
2023/07/24 03:46:17;;;;;;;3.67;2.20;;;18.20;81.80;;;;;;5063150;28;20048;-70
2023/07/24 03:48:44;;;;;;;4.63;2.55;;;18.10;81.80;;;;;;5058671;28;20084;-70
2023/07/24 03:51:11;;;;;;;4.88;2.50;;;18.10;81.90;;;;;;5061535;28;20048;-72
2023/07/24 03:53:39;;;;;;;4.57;2.47;;;18.10;81.90;;;;;;5064984;28;20497;-70
2023/07/24 03:56:06;;;;;;;5.20;2.40;;;18.10;82.00;;;;;;5061273;28;20040;-72
2023/07/24 03:58:33;;;;;;;4.65;2.28;;;18.10;82.00;;;;;;5063777;28;20092;-70
2023/07/24 04:01:01;;;;;;;4.95;2.20;;;18.00;81.90;;;;;;5062612;28;20045;-70
2023/07/24 04:03:28;;;;;;;4.93;2.20;;;18.00;81.90;;;;;;5060300;28;20048;-73
2023/07/24 04:05:55;;;;;;;3.67;2.40;;;18.00;81.90;;;;;;5067364;28;20056;-71
2023/07/24 04:08:22;;;;;;;5.43;2.40;;;18.00;81.90;;;;;;5061183;28;20087;-72
2023/07/24 04:10:49;;;;;;;4.22;2.17;;;17.90;82.00;;;;;;5064985;28;20130;-70
2023/07/24 04:13:16;;;;;;;4.95;2.72;;;17.90;81.90;;;;;;5064449;28;20060;-70
2023/07/24 04:15:44;;;;;;;5.90;2.63;;;18.00;81.90;;;;;;5062370;28;20503;-70
2023/07/24 04:18:12;;;;;;;4.55;2.45;;;18.00;81.90;;;;;;5064097;28;20535;-71
2023/07/24 04:20:39;;;;;;;5.78;2.47;;;17.90;81.90;;;;;;5062692;28;20049;-71
2023/07/24 04:23:06;;;;;;;6.57;2.20;;;17.90;82.00;;;;;;5061972;28;20496;-70
2023/07/24 04:25:34;;;;;;;5.80;2.45;;;17.90;82.00;;;;;;5065487;28;20669;-71
2023/07/24 04:28:01;;;;;;;4.05;2.03;;;17.90;82.10;;;;;;5064839;28;20243;-70
2023/07/24 04:30:28;;;;;;;4.50;2.03;;;17.80;82.20;;;;;;5065521;28;20072;-71
2023/07/24 04:32:55;;;;;;;5.57;2.38;;;17.80;82.10;;;;;;5062978;28;20128;-71
2023/07/24 04:35:23;;;;;;;6.50;2.60;;;17.90;82.00;;;;;;5063862;28;20513;-71
2023/07/24 04:37:51;;;;;;;6.38;2.80;;;17.90;82.10;;;;;;5066687;28;20045;-72
2023/07/24 04:40:18;;;;;;;6.22;2.58;;;17.90;81.70;;;;;;5061284;28;20424;-71
2023/07/24 04:42:45;;;;;;;6.20;2.80;;;18.00;81.70;;;;;;5063283;28;20452;-71
2023/07/24 04:45:12;;;;;;;4.10;2.33;;;18.00;81.80;;;;;;5063655;28;20063;-71
2023/07/24 04:47:39;;;;;;;4.13;2.33;;;18.10;81.80;;;;;;5060132;28;20049;-72
2023/07/24 04:50:07;;;;;;;4.68;2.30;;;18.10;81.70;;;;;;5064342;28;20048;-71
2023/07/24 04:52:35;;;;;;;5.65;2.85;;;18.10;81.60;;;;;;5063257;28;20048;-71
2023/07/24 04:55:02;;;;;;;5.97;2.80;;;18.10;81.50;;;;;;5066413;28;20478;-71
2023/07/24 04:57:29;;;;;;;5.20;2.65;;;18.20;81.40;;;;;;5063960;28;20048;-71
2023/07/24 04:59:56;;;;;;;5.25;2.85;;;18.20;81.20;;;;;;5062670;28;20052;-71
2023/07/24 05:02:23;;;;;;;5.57;2.88;;;18.20;81.00;;;;;;5058144;28;20045;-71
2023/07/24 05:04:50;;;;;;;5.50;3.28;;;18.30;81.00;;;;;;5067075;28;20473;-70
2023/07/24 05:07:17;;;;;;;4.93;3.03;;;18.30;81.20;;;;;;5064078;28;20135;-70
2023/07/24 05:09:45;;;;;;;5.95;3.30;;;18.30;81.40;;;;;;5063126;28;20445;-71
2023/07/24 05:12:13;;;;;;;5.88;3.33;;;18.30;81.70;;;;;;5063142;28;20044;-70
2023/07/24 05:14:39;;;;;;;6.38;3.10;;;18.40;81.90;;;;;;5066438;28;20041;-70
2023/07/24 05:17:06;;;;;;;6.82;3.33;;;18.30;81.90;;;;;;5060285;28;20599;-71
2023/07/24 05:19:33;;;;;;;5.25;3.10;;;18.40;82.20;;;;;;5062577;28;20045;-72
2023/07/24 05:22:00;;;;;;;4.65;2.80;;;18.40;82.20;;;;;;5064712;28;20131;-70
2023/07/24 05:24:28;;;;;;;4.10;2.72;;;18.40;82.30;;;;;;5063060;28;20452;-71
2023/07/24 05:26:56;;;;;;;5.60;3.50;;;18.40;82.30;;;;;;5063228;28;20086;-70
2023/07/24 05:29:23;;;;;;;4.65;3.10;;;18.50;82.30;;;;;;5061953;28;20086;-71
2023/07/24 05:31:50;;;;;;;6.38;3.08;;;18.50;82.40;;;;;;5057538;28;20048;-70
2023/07/24 05:34:17;;;;;;;5.65;3.17;;;18.50;82.20;;;;;;5064884;28;20127;-70
2023/07/24 05:36:44;;;;;;;5.00;2.72;;;18.50;82.10;;;;;;5059281;28;20127;-71
2023/07/24 05:39:11;;;;;;;7.18;3.80;;;18.60;82.20;;;;;;5061377;28;20044;-70
2023/07/24 05:41:38;;;;;;;4.70;2.70;;;18.60;82.30;;;;;;5059756;28;20055;-71
2023/07/24 05:44:06;;;;;;;4.95;2.97;;;18.60;82.30;;;;;;5062673;27;20045;-72
2023/07/24 05:46:33;;;;;;;4.43;2.92;;;18.60;82.30;;;;;;5061001;28;20060;-70
2023/07/24 05:49:01;;;;;;;5.25;3.22;;;18.60;82.30;;;;;;5061224;28;20048;-70
2023/07/24 05:51:29;;;;;;;5.18;2.80;;;18.60;82.50;;;;;;5062641;28;20110;-71
2023/07/24 05:53:56;;;;;;;5.95;2.70;;;18.60;82.30;;;;;;5062688;28;20040;-71
2023/07/24 05:56:23;;;;;;;5.03;2.83;;;18.60;82.30;;;;;;5062794;28;20513;-71
2023/07/24 05:58:51;;;;;;;4.22;2.70;;;18.70;82.10;;;;;;5058989;28;20566;-71
2023/07/24 06:01:19;;;;;;;4.85;2.88;;;18.70;82.20;;;;;;5061839;28;20054;-70
2023/07/24 06:03:46;;;;;;;6.47;2.97;;;18.70;82.40;;;;;;5060824;28;20055;-70
2023/07/24 06:06:14;;;;;;;6.53;3.25;;;18.80;82.30;;;;;;5064170;28;20063;-70
2023/07/24 06:08:41;;;;;;;6.20;3.10;;;18.80;82.30;;;;;;5064314;28;20402;-71
2023/07/24 06:11:07;;;;;;;7.45;3.00;;;18.80;82.20;;;;;;5063267;28;20459;-70
2023/07/24 06:13:34;;;;;;;4.88;3.00;;;18.90;81.80;;;;;;5060584;28;20045;-70
2023/07/24 06:16:01;;;;;;;4.80;3.10;;;19.00;81.90;;;;;;5063655;28;20162;-70
2023/07/24 06:18:30;;;;;;;5.93;2.88;;;19.10;81.90;;;;;;5059512;28;20048;-71
2023/07/24 06:20:57;;;;;;;6.00;3.35;;;19.10;81.20;;;;;;5060224;28;20091;-71
2023/07/24 06:23:24;;;;;;;5.10;3.03;;;19.20;81.20;;;;;;5061478;28;20416;-71
2023/07/24 06:25:51;;;;;;;4.93;2.83;;;19.30;81.20;;;;;;5066636;28;20109;-70
2023/07/24 06:28:18;;;;;;;4.95;3.30;;;19.30;80.30;;;;;;5061815;28;20462;-70
2023/07/24 06:30:45;;;;;;;7.07;3.28;;;19.30;80.40;;;;;;5062480;28;20049;-71
2023/07/24 06:33:13;;;;;;;5.32;3.05;;;19.40;80.80;;;;;;5059007;28;20551;-70
2023/07/24 06:35:41;;;;;;;7.00;3.28;;;19.40;81.20;;;;;;5067699;28;20123;-70
2023/07/24 06:38:09;;;;;;;5.93;2.75;;;19.40;80.50;;;;;;5063959;28;20072;-71
2023/07/24 06:40:36;;;;;;;5.93;3.47;;;19.40;79.80;;;;;;5064880;28;20098;-70
2023/07/24 06:43:04;;;;;;;5.50;3.30;;;19.50;79.70;;;;;;5062331;28;20127;-70
2023/07/24 06:45:31;;;;;;;5.25;2.63;;;19.50;80.70;;;;;;5053382;28;20134;-71
2023/07/24 06:47:58;;;;;;;6.18;3.22;;;19.60;80.10;;;;;;5057679;28;20048;-71
2023/07/24 06:50:25;;;;;;;6.10;3.38;;;19.60;80.70;;;;;;5054347;28;20563;-72
2023/07/24 06:52:54;;;;;;;5.68;3.17;;;19.50;79.90;;;;;;5061581;28;21046;-71
2023/07/24 06:55:24;;;;;;;5.25;3.38;;;19.50;80.30;;;;;;5062829;28;20052;-70
2023/07/24 06:57:51;;;;;;;7.63;3.70;;;19.60;80.30;;;;;;5063402;28;20044;-70
2023/07/24 07:00:19;;;;;;;5.30;3.22;;;19.60;80.30;;;;;;5064263;28;20587;-70
2023/07/24 07:02:48;;;;;;;7.22;3.72;;;19.60;80.60;;;;;;5060984;28;20090;-71
2023/07/24 07:05:18;;;;;;;7.97;3.35;;;19.60;80.70;;;;;;5068456;28;20543;-70
2023/07/24 07:07:50;;;;;;;4.93;3.13;;;19.70;80.20;;;;;;5063025;28;20515;-71
2023/07/24 07:10:21;;;;;;;4.85;3.13;;;19.80;79.80;;;;;;5067033;28;20066;-71
2023/07/24 07:13:11;;;;;;;5.30;3.25;;;19.90;79.60;;;;;;5063256;28;20049;-71
2023/07/24 07:15:38;;;;;;;6.18;3.90;;;19.90;79.40;;;;;;5062151;28;20040;-72
2023/07/24 07:18:05;;;;;;;5.93;3.17;;;20.00;79.20;;;;;;5064465;28;20082;-71
2023/07/24 07:20:32;;;;;;;5.28;3.05;;;20.10;78.90;;;;;;5062737;28;20049;-73
2023/07/24 07:22:59;;;;;;;6.35;3.70;;;20.20;78.70;;;;;;5065173;28;20500;-71
2023/07/24 07:25:28;;;;;;;5.72;3.28;;;20.30;78.40;;;;;;5066483;28;20194;-70
2023/07/24 07:27:55;;;;;;;6.72;3.65;;;20.30;78.30;;;;;;5060676;28;20102;-71
2023/07/24 07:30:22;;;;;;;5.72;3.38;;;20.40;78.40;;;;;;5064783;28;20506;-71
2023/07/24 07:32:49;;;;;;;5.57;3.22;;;20.50;77.80;;;;;;5065497;28;20040;-70
2023/07/24 07:35:16;;;;;;;5.07;3.22;;;20.60;77.60;;;;;;5064613;28;20048;-71
2023/07/24 07:37:43;;;;;;;5.38;3.28;;;20.60;77.50;;;;;;5065839;28;20496;-72
2023/07/24 07:40:11;;;;;;;6.55;3.75;;;20.60;77.70;;;;;;5067235;28;20416;-71
2023/07/24 07:42:41;;;;;;;5.32;3.47;;;20.60;77.50;;;;;;5064623;28;20587;-71
2023/07/24 07:45:09;;;;;;;5.68;3.58;;;20.70;77.20;;;;;;5059422;28;20497;-71
2023/07/24 07:47:36;;;;;;;5.47;3.53;;;20.90;77.00;;;;;;5067120;28;20135;-71
2023/07/24 07:50:03;;;;;;;6.20;3.38;;;20.90;76.90;;;;;;5063112;28;20323;-71
2023/07/24 07:52:30;;;;;;;7.38;3.47;;;21.00;76.50;;;;;;5068212;28;20048;-72
2023/07/24 07:54:57;;;;;;;5.10;3.25;;;21.10;76.40;;;;;;5065614;28;20048;-72
2023/07/24 07:57:24;;;;;;;7.28;3.47;;;21.30;76.30;;;;;;5066318;28;20573;-72
2023/07/24 07:59:53;;;;;;;5.57;3.47;;;21.30;76.40;;;;;;5064586;28;20382;-72
2023/07/24 08:02:20;;;;;;;5.95;3.65;;;21.40;76.30;;;;;;5060380;28;20550;-70
2023/07/24 08:04:47;;;;;;;5.68;3.50;;;21.60;75.60;;;;;;5053740;28;20047;-71
2023/07/24 08:07:14;;;;;;;5.18;3.45;;;21.70;75.40;;;;;;5065412;28;20076;-71
2023/07/24 08:09:41;;;;;;;5.38;3.22;;;21.80;74.90;;;;;;5065327;28;20044;-71
2023/07/24 08:12:09;;;;;;;6.15;3.67;;;21.90;74.70;;;;;;5063021;28;20048;-73
2023/07/24 08:14:36;;;;;;;5.75;3.72;;;22.10;74.10;;;;;;5063916;28;20515;-71
2023/07/24 08:17:05;;;;;;;6.40;3.97;;;22.20;73.80;;;;;;5065303;28;20056;-72
2023/07/24 08:19:32;;;;;;;7.22;4.15;;;22.20;73.30;;;;;;5064303;28;20044;-71
2023/07/24 08:21:59;;;;;;;6.97;3.95;;;22.20;72.80;;;;;;5063970;28;20134;-72
2023/07/24 08:24:26;;;;;;;6.93;3.85;;;22.30;72.40;;;;;;5065793;28;20040;-72
2023/07/24 08:26:53;;;;;;;6.53;4.18;;;22.40;71.90;;;;;;5063144;28;20055;-71
2023/07/24 08:29:20;;;;;;;7.15;4.50;;;22.40;71.60;;;;;;5063561;28;20497;-72
2023/07/24 08:31:47;;;;;;;5.85;4.10;;;22.50;71.00;;;;;;5080017;28;20044;-70
2023/07/24 08:34:16;;;;;;;6.88;3.90;;;22.60;70.60;;;;;;5060567;28;20055;-71
2023/07/24 08:36:43;;;;;;;6.18;4.22;;;22.60;70.20;;;;;;5061935;28;20095;-72
2023/07/24 08:39:10;;;;;;;6.55;3.90;;;22.80;69.60;;;;;;5062122;28;20041;-71
2023/07/24 08:41:38;;;;;;;6.82;4.43;;;22.90;68.60;;;;;;5064758;28;20045;-72
2023/07/24 08:44:07;;;;;;;7.00;4.20;;;23.00;68.70;;;;;;5065519;28;20131;-72
2023/07/24 08:46:38;;;;;;;7.72;4.47;;;23.00;68.20;;;;;;5062066;28;20045;-71
2023/07/24 08:49:05;;;;;;;7.32;4.35;;;23.10;68.00;;;;;;5062609;28;20067;-71
2023/07/24 08:51:34;;;;;;;9.18;4.28;;;23.10;67.00;;;;;;5067042;28;20451;-71
2023/07/24 08:54:03;;;;;;;7.53;4.70;;;23.10;66.40;;;;;;5059531;28;20052;-71
2023/07/24 08:56:31;;;;;;;6.95;4.50;;;23.10;66.40;;;;;;5063053;28;20455;-71
2023/07/24 08:58:58;;;;;;;7.93;4.45;;;23.10;65.90;;;;;;5061722;28;20457;-71
2023/07/24 09:01:26;;;;;;;8.98;4.70;;;23.00;65.40;;;;;;5063794;28;20052;-71
2023/07/24 09:03:53;;;;;;;7.07;4.55;;;23.10;65.10;;;;;;5062470;28;20052;-71
2023/07/24 09:06:21;;;;;;;7.47;4.47;;;23.10;64.90;;;;;;5061321;28;20493;-71
2023/07/24 09:08:49;;;;;;;8.10;4.80;;;23.30;65.00;;;;;;5059080;28;20131;-71
2023/07/24 09:11:17;;;;;;;6.72;4.82;;;23.30;64.50;;;;;;5064945;28;20098;-70
2023/07/24 09:13:44;;;;;;;7.60;4.55;;;23.40;64.50;;;;;;5062756;28;20048;-71
2023/07/24 09:16:23;;;;;;;7.80;4.53;;;23.40;64.20;;;;;;5060022;28;20102;-70
2023/07/24 09:18:51;;;;;;;8.90;4.60;;;23.40;64.30;;;;;;5061942;28;20123;-70
2023/07/24 09:21:28;;;;;;;7.43;4.55;;;23.30;64.20;;;;;;5061766;28;20055;-70
2023/07/24 09:23:57;;;;;;;7.13;4.43;;;23.30;63.80;;;;;;5060988;28;20144;-69
2023/07/24 09:26:24;;;;;;;6.45;4.40;;;23.40;63.70;;;;;;5060319;28;20053;-71
2023/07/24 09:28:55;;;;;;;7.57;4.63;;;23.40;63.40;;;;;;5063403;28;20041;-68
2023/07/24 09:31:22;;;;;;;7.75;4.80;;;23.50;63.30;;;;;;5062886;28;20467;-70
2023/07/24 09:33:49;;;;;;;7.57;4.70;;;23.60;63.40;;;;;;5064168;28;20505;-70
2023/07/24 09:36:16;;;;;;;7.53;4.47;;;23.60;63.10;;;;;;5062907;28;20511;-70
2023/07/24 09:38:43;;;;;;;7.28;4.40;;;23.60;63.20;;;;;;5064210;28;20127;-72
2023/07/24 09:41:14;;;;;;;7.15;4.88;;;23.70;62.60;;;;;;5066364;28;20083;-70
2023/07/24 09:43:43;;;;;;;9.73;4.75;;;23.80;62.30;;;;;;5063447;28;20475;-70
2023/07/24 09:46:11;;;;;;;7.35;4.22;;;24.00;62.20;;;;;;5063724;28;20049;-70
2023/07/24 09:48:44;;;;;;;7.20;4.28;;;24.10;61.80;;;;;;5062705;28;20105;-70
2023/07/24 09:51:13;;;;;;;8.30;4.60;;;24.30;61.50;;;;;;5053668;28;20055;-70
2023/07/24 09:53:48;;;;;;;6.82;4.80;;;24.50;60.90;;;;;;5059728;28;20051;-71
2023/07/24 09:56:19;;;;;;;6.05;4.50;;;24.50;60.60;;;;;;5060740;28;20086;-71
2023/07/24 09:58:48;;;;;;;9.10;5.40;;;24.60;60.30;;;;;;5056075;28;20047;-71
2023/07/24 10:01:16;;;;;;;;;;;24.60;60.60;;;;;;5064483;28;20052;-72
2023/07/24 10:03:48;;;;;;;7.15;4.80;;;24.60;60.20;;;;;;5061946;28;19924;-70
2023/07/24 10:06:16;;;;;;;7.68;5.28;;;24.70;60.50;;;;;;5062044;28;20401;-71
2023/07/24 10:08:44;;;;;;;8.93;5.97;;;24.80;59.90;;;;;;5062606;28;20105;-70
2023/07/24 10:11:13;;;;;;;10.82;7.20;;;24.90;60.00;;;;;;5060027;28;20131;-73
2023/07/24 10:13:42;;;;;;;13.35;10.63;;;24.90;59.80;;;;;;5062285;28;20102;-70
2023/07/24 10:16:09;;;;;;;;;;;25.00;59.60;;;;;;5058646;28;20052;-70
2023/07/24 10:18:43;;;;;;;14.20;10.20;;;25.00;59.50;;;;;;5060085;28;19974;-70
2023/07/24 10:21:12;;;;;;;13.57;10.02;;;24.90;59.60;;;;;;5061614;28;20044;-70
2023/07/24 10:24:02;;;;;;;14.10;11.10;;;25.00;59.60;;;;;;5062131;28;20041;-70
2023/07/24 10:26:29;;;;;;;16.60;10.68;;;25.00;59.70;;;;;;5055349;28;20065;-71
2023/07/24 10:28:59;;;;;;;10.68;8.50;;;25.00;59.60;;;;;;5060224;28;20640;-70
2023/07/24 10:31:28;;;;;;;10.00;7.53;;;25.00;59.90;;;;;;5060695;28;20049;-71
2023/07/24 10:33:56;;;;;;;10.35;7.28;;;25.00;59.60;;;;;;5060024;28;20619;-70
2023/07/24 10:36:24;;;;;;;9.85;7.45;;;25.10;59.40;;;;;;5061991;28;20127;-70
2023/07/24 10:38:54;;;;;;;10.95;8.80;;;25.10;59.30;;;;;;5066321;28;20732;-71
2023/07/24 10:41:21;;;;;;;15.43;11.93;;;25.20;59.50;;;;;;5067093;28;20048;-71
2023/07/24 10:43:50;;;;;;;19.08;15.93;;;25.30;58.80;;;;;;5065078;28;20636;-70
2023/07/24 10:46:20;;;;;;;19.10;13.90;;;25.40;58.60;;;;;;5065607;28;20036;-69
2023/07/24 10:48:49;;;;;;;14.10;10.65;;;25.50;58.00;;;;;;5065391;28;20101;-72
2023/07/24 10:51:16;;;;;;;11.68;9.52;;;25.50;57.80;;;;;;5067345;28;20060;-70
2023/07/24 10:53:46;;;;;;;13.88;9.48;;;25.50;57.90;;;;;;5065653;28;20049;-70
2023/07/24 10:56:13;;;;;;;12.07;9.27;;;25.40;57.80;;;;;;5061390;28;20508;-70
2023/07/24 10:58:40;;;;;;;10.32;7.70;;;25.40;57.40;;;;;;5063449;28;20404;-71
2023/07/24 11:01:09;;;;;;;11.07;8.15;;;25.40;57.30;;;;;;5063735;28;20071;-70
2023/07/24 11:03:39;;;;;;;12.02;7.65;;;25.40;56.90;;;;;;5063009;28;20133;-70
2023/07/24 11:06:12;;;;;;;10.32;7.78;;;25.40;56.60;;;;;;5058130;28;20064;-71
2023/07/24 11:08:41;;;;;;;10.15;6.63;;;25.40;56.30;;;;;;5064383;28;20075;-70
2023/07/24 11:11:12;;;;;;;9.40;6.97;;;25.40;55.50;;;;;;5062220;28;20125;-71
2023/07/24 11:13:39;;;;;;;10.85;6.47;;;25.50;55.10;;;;;;5062974;28;20110;-70
2023/07/24 11:16:07;;;;;;;10.15;6.85;;;25.50;54.90;;;;;;5062872;28;20428;-70
2023/07/24 11:18:47;;;;;;;9.65;6.20;;;25.60;54.90;;;;;;5061900;28;20568;-71
2023/07/24 11:21:15;;;;;;;9.60;6.25;;;25.60;54.70;;;;;;5064889;28;20136;-70
2023/07/24 11:23:47;;;;;;;8.25;5.60;;;25.70;54.20;;;;;;5063904;28;20056;-70
2023/07/24 11:26:15;;;;;;;9.55;5.68;;;25.70;54.20;;;;;;5059800;28;20509;-70
2023/07/24 11:28:43;;;;;;;8.27;5.72;;;25.80;54.40;;;;;;5064389;28;20040;-70
2023/07/24 11:31:11;;;;;;;8.52;5.97;;;25.80;54.30;;;;;;5060794;28;20036;-71
2023/07/24 11:33:40;;;;;;;7.32;4.97;;;25.90;53.60;;;;;;5063569;28;20516;-70
2023/07/24 11:36:08;;;;;;;6.50;4.93;;;25.90;53.20;;;;;;5058019;28;20520;-70
2023/07/24 11:38:37;;;;;;;8.40;5.78;;;26.00;53.20;;;;;;5062731;28;20056;-71
2023/07/24 11:41:05;;;;;;;8.93;5.82;;;26.10;53.30;;;;;;5065449;28;20408;-70
2023/07/24 11:43:32;;;;;;;10.05;5.82;;;26.20;53.10;;;;;;5063523;28;20064;-69
2023/07/24 11:45:59;;;;;;;11.07;5.90;;;26.20;53.20;;;;;;5065330;28;20123;-70
2023/07/24 11:48:26;;;;;;;9.60;5.93;;;26.30;52.80;;;;;;5065123;28;20416;-70
2023/07/24 11:50:55;;;;;;;12.52;6.88;;;26.30;53.10;;;;;;5064209;28;20132;-71
2023/07/24 11:53:26;;;;;;;11.05;6.78;;;26.30;53.40;;;;;;5064308;28;20040;-70
2023/07/24 11:55:58;;;;;;;8.90;5.65;;;26.30;53.30;;;;;;5060780;28;20590;-71
2023/07/24 11:58:28;;;;;;;8.95;6.60;;;26.30;53.10;;;;;;5063422;28;20120;-70
2023/07/24 12:00:55;;;;;;;9.25;5.60;;;26.40;52.50;;;;;;5063338;28;20084;-71
2023/07/24 12:03:23;;;;;;;7.78;5.70;;;26.40;52.60;;;;;;5065904;28;20094;-71
2023/07/24 12:05:50;;;;;;;7.97;5.50;;;26.20;52.50;;;;;;5066084;28;20048;-70
2023/07/24 12:08:19;;;;;;;9.77;5.80;;;26.20;52.70;;;;;;5063030;28;20497;-72
2023/07/24 12:10:48;;;;;;;7.97;5.47;;;26.10;53.00;;;;;;5060992;28;20056;-71
2023/07/24 12:13:15;;;;;;;7.60;5.55;;;26.10;53.30;;;;;;5063184;28;20473;-70
2023/07/24 12:15:42;;;;;;;8.13;6.00;;;26.20;53.60;;;;;;5065695;28;20234;-70
2023/07/24 12:18:10;;;;;;;8.27;6.40;;;26.20;53.40;;;;;;5059379;28;20083;-70
2023/07/24 12:20:37;;;;;;;9.68;8.32;;;26.20;53.70;;;;;;5061439;28;20044;-69
2023/07/24 12:23:04;;;;;;;12.13;9.30;;;26.10;53.40;;;;;;5060204;28;20504;-70
2023/07/24 12:25:31;;;;;;;14.13;11.52;;;26.20;53.30;;;;;;5061496;28;20059;-71
2023/07/24 12:28:00;;;;;;;14.60;10.80;;;26.30;53.30;;;;;;5063331;28;20049;-71
2023/07/24 12:30:27;;;;;;;12.75;10.40;;;26.30;53.20;;;;;;5066240;28;20127;-70
2023/07/24 12:32:54;;;;;;;14.18;10.70;;;26.20;53.40;;;;;;5060584;28;20060;-69
2023/07/24 12:35:21;;;;;;;11.43;8.52;;;26.20;53.50;;;;;;5063353;28;20045;-71
2023/07/24 12:37:48;;;;;;;11.27;8.35;;;26.30;53.30;;;;;;5061749;28;20044;-70
2023/07/24 12:40:15;;;;;;;9.43;7.20;;;26.40;53.00;;;;;;5063160;28;20097;-71
2023/07/24 12:42:42;;;;;;;10.52;7.53;;;26.40;52.80;;;;;;5063149;28;20045;-71
2023/07/24 12:45:11;;;;;;;9.88;6.88;;;26.50;52.80;;;;;;5061073;28;20080;-71
2023/07/24 12:47:38;;;;;;;9.32;6.75;;;26.60;52.10;;;;;;5060885;28;20064;-70
2023/07/24 12:50:05;;;;;;;7.95;6.20;;;26.60;52.30;;;;;;5061823;28;20053;-71